< < Back
Terminal Aerodrome Forecast


Current Version              Previous Versions:   1  2  3  4  5  6  7  8  9  

Terminal Aerodrome Forecast

051
FTUS42 KGSP 241736
TAFAVL
TAF
KAVL 241736Z 2418/2518 20005KT P6SM SCT050
     FM242000 VRB03KT P6SM VCTS SCT050CB
     FM250100 00000KT P6SM FEW050 SCT250
     FM250700 00000KT 4SM BR SCT008
      TEMPO 2509/2513 1SM BR BKN003
     FM251400 33003KT P6SM SCT030
     FM251600 34004KT P6SM FEW050=



Latest METAR

745
SAUS70 KWBC 250000 RRJ
MTRAVL
METAR KAVL 242354Z 00000KT 10SM CLR 29/19 A3010 RMK AO2 SLP161 T02940189
10322 20294 50000


USA.gov is the U.S. government's official web portal to all federal, state and local government web resources and services.